sensor_id;sensor_type;location;lat;lon;timestamp;pressure;altitude;pressure_sealevel;temperature;humidity
11339;BME280;5724;42.684;23.252;2023-03-15T00:01:33;93374.78;;;4.70;56.63
11339;BME280;5724;42.684;23.252;2023-03-15T00:03:59;93375.06;;;4.65;57.02
11339;BME280;5724;42.684;23.252;2023-03-15T00:06:25;93358.13;;;4.68;56.74
11339;BME280;5724;42.684;23.252;2023-03-15T00:08:50;93363.47;;;4.80;56.37
11339;BME280;5724;42.684;23.252;2023-03-15T00:11:17;93368.69;;;4.73;56.61
11339;BME280;5724;42.684;23.252;2023-03-15T00:13:44;93355.91;;;4.57;56.95
11339;BME280;5724;42.684;23.252;2023-03-15T00:16:11;93376.88;;;4.60;57.44
11339;BME280;5724;42.684;23.252;2023-03-15T00:18:43;93359.69;;;4.69;57.05
11339;BME280;5724;42.684;23.252;2023-03-15T00:21:09;93358.91;;;4.68;56.81
11339;BME280;5724;42.684;23.252;2023-03-15T00:23:34;93360.47;;;4.69;57.76
11339;BME280;5724;42.684;23.252;2023-03-15T00:26:00;93362.13;;;4.58;57.53
11339;BME280;5724;42.684;23.252;2023-03-15T00:28:25;93360.63;;;4.60;57.74
11339;BME280;5724;42.684;23.252;2023-03-15T00:31:02;93359.47;;;4.74;57.01
11339;BME280;5724;42.684;23.252;2023-03-15T00:33:28;93361.03;;;4.75;57.63
11339;BME280;5724;42.684;23.252;2023-03-15T00:35:53;93359.78;;;4.72;57.55
11339;BME280;5724;42.684;23.252;2023-03-15T00:38:18;93355.16;;;4.73;57.85
11339;BME280;5724;42.684;23.252;2023-03-15T00:40:46;93348.19;;;4.72;57.28
11339;BME280;5724;42.684;23.252;2023-03-15T00:43:11;93355.84;;;4.54;58.24
11339;BME280;5724;42.684;23.252;2023-03-15T00:45:42;93350.75;;;4.52;58.43
11339;BME280;5724;42.684;23.252;2023-03-15T00:48:09;93342.59;;;4.65;58.37
11339;BME280;5724;42.684;23.252;2023-03-15T00:50:35;93332.28;;;4.70;58.26
11339;BME280;5724;42.684;23.252;2023-03-15T00:53:00;93327.84;;;4.78;58.57
11339;BME280;5724;42.684;23.252;2023-03-15T00:55:26;93323.00;;;4.83;58.40
11339;BME280;5724;42.684;23.252;2023-03-15T00:57:51;93328.56;;;4.75;58.55
11339;BME280;5724;42.684;23.252;2023-03-15T01:00:21;93321.75;;;4.81;58.19
11339;BME280;5724;42.684;23.252;2023-03-15T01:02:52;93316.94;;;4.90;58.48
11339;BME280;5724;42.684;23.252;2023-03-15T01:05:18;93317.06;;;4.94;58.48
11339;BME280;5724;42.684;23.252;2023-03-15T01:07:44;93300.28;;;4.88;58.19
11339;BME280;5724;42.684;23.252;2023-03-15T01:10:10;93319.84;;;4.97;58.41
11339;BME280;5724;42.684;23.252;2023-03-15T01:12:36;93309.56;;;5.03;57.74
11339;BME280;5724;42.684;23.252;2023-03-15T01:15:05;93310.06;;;5.08;58.43
11339;BME280;5724;42.684;23.252;2023-03-15T01:17:31;93313.91;;;5.07;57.74
11339;BME280;5724;42.684;23.252;2023-03-15T01:19:58;93308.59;;;4.95;58.38
11339;BME280;5724;42.684;23.252;2023-03-15T01:22:24;93283.19;;;4.84;58.18
11339;BME280;5724;42.684;23.252;2023-03-15T01:24:49;93290.16;;;5.01;57.99
11339;BME280;5724;42.684;23.252;2023-03-15T01:27:15;93283.59;;;5.02;58.65
11339;BME280;5724;42.684;23.252;2023-03-15T01:29:40;93292.34;;;5.11;59.08
11339;BME280;5724;42.684;23.252;2023-03-15T01:32:06;93297.94;;;5.18;60.02
11339;BME280;5724;42.684;23.252;2023-03-15T01:34:32;93297.56;;;5.20;60.56
11339;BME280;5724;42.684;23.252;2023-03-15T01:36:57;93296.34;;;5.17;60.99
11339;BME280;5724;42.684;23.252;2023-03-15T01:39:24;93282.28;;;5.11;60.61
11339;BME280;5724;42.684;23.252;2023-03-15T01:41:50;93287.19;;;5.06;59.63
11339;BME280;5724;42.684;23.252;2023-03-15T01:44:17;93286.66;;;5.00;59.65
11339;BME280;5724;42.684;23.252;2023-03-15T01:46:42;93284.91;;;4.92;59.42
11339;BME280;5724;42.684;23.252;2023-03-15T01:49:12;93287.00;;;4.99;59.56
11339;BME280;5724;42.684;23.252;2023-03-15T01:54:28;93273.22;;;5.04;59.50
11339;BME280;5724;42.684;23.252;2023-03-15T01:57:15;93265.25;;;5.11;60.04
11339;BME280;5724;42.684;23.252;2023-03-15T01:59:49;93261.34;;;5.08;59.76
11339;BME280;5724;42.684;23.252;2023-03-15T02:02:18;93261.53;;;5.15;59.74
11339;BME280;5724;42.684;23.252;2023-03-15T02:05:02;93250.94;;;5.10;59.54
11339;BME280;5724;42.684;23.252;2023-03-15T02:07:33;93244.31;;;4.92;60.22
11339;BME280;5724;42.684;23.252;2023-03-15T02:12:31;93239.34;;;4.94;60.98
11339;BME280;5724;42.684;23.252;2023-03-15T02:14:59;93252.63;;;4.99;60.66
11339;BME280;5724;42.684;23.252;2023-03-15T02:17:35;93219.38;;;4.83;62.24
11339;BME280;5724;42.684;23.252;2023-03-15T02:23:04;93240.94;;;4.95;61.61
11339;BME280;5724;42.684;23.252;2023-03-15T02:28:28;93235.44;;;4.76;62.30
11339;BME280;5724;42.684;23.252;2023-03-15T02:30:54;93241.09;;;4.71;61.68
11339;BME280;5724;42.684;23.252;2023-03-15T02:33:29;93226.94;;;4.62;61.74
11339;BME280;5724;42.684;23.252;2023-03-15T02:36:39;93228.50;;;4.63;61.51
11339;BME280;5724;42.684;23.252;2023-03-15T02:38:57;93227.28;;;4.44;61.42
11339;BME280;5724;42.684;23.252;2023-03-15T02:41:28;93228.63;;;4.22;61.95
11339;BME280;5724;42.684;23.252;2023-03-15T02:43:58;93225.84;;;4.19;61.60
11339;BME280;5724;42.684;23.252;2023-03-15T02:46:26;93219.91;;;4.13;61.97
11339;BME280;5724;42.684;23.252;2023-03-15T02:48:52;93220.59;;;3.82;63.27
11339;BME280;5724;42.684;23.252;2023-03-15T02:51:20;93221.78;;;3.97;63.58
11339;BME280;5724;42.684;23.252;2023-03-15T02:53:45;93217.69;;;4.03;63.50
11339;BME280;5724;42.684;23.252;2023-03-15T02:56:11;93208.56;;;3.80;64.29
11339;BME280;5724;42.684;23.252;2023-03-15T02:58:38;93218.25;;;3.81;64.20
11339;BME280;5724;42.684;23.252;2023-03-15T03:01:04;93217.47;;;3.80;64.15
11339;BME280;5724;42.684;23.252;2023-03-15T03:03:30;93210.31;;;3.60;62.64
11339;BME280;5724;42.684;23.252;2023-03-15T03:05:55;93200.25;;;3.72;62.33
11339;BME280;5724;42.684;23.252;2023-03-15T03:08:21;93196.97;;;3.79;62.31
11339;BME280;5724;42.684;23.252;2023-03-15T03:10:46;93188.13;;;3.94;62.72
11339;BME280;5724;42.684;23.252;2023-03-15T03:13:11;93187.25;;;3.90;63.16
11339;BME280;5724;42.684;23.252;2023-03-15T03:15:37;93200.50;;;3.95;62.85
11339;BME280;5724;42.684;23.252;2023-03-15T03:18:03;93199.13;;;4.01;63.69
11339;BME280;5724;42.684;23.252;2023-03-15T03:20:28;93189.94;;;3.90;64.09
11339;BME280;5724;42.684;23.252;2023-03-15T03:22:54;93197.19;;;4.02;64.33
11339;BME280;5724;42.684;23.252;2023-03-15T03:25:20;93188.50;;;4.09;64.51
11339;BME280;5724;42.684;23.252;2023-03-15T03:27:46;93180.13;;;3.98;64.48
11339;BME280;5724;42.684;23.252;2023-03-15T03:30:12;93185.25;;;4.03;65.48
11339;BME280;5724;42.684;23.252;2023-03-15T03:32:41;93191.66;;;4.11;64.79
11339;BME280;5724;42.684;23.252;2023-03-15T03:35:07;93188.94;;;4.11;65.01
11339;BME280;5724;42.684;23.252;2023-03-15T03:37:32;93185.44;;;4.10;65.08
11339;BME280;5724;42.684;23.252;2023-03-15T03:40:00;93181.81;;;4.18;65.16
11339;BME280;5724;42.684;23.252;2023-03-15T03:42:25;93174.22;;;4.24;64.50
11339;BME280;5724;42.684;23.252;2023-03-15T03:44:51;93171.16;;;4.10;65.30
11339;BME280;5724;42.684;23.252;2023-03-15T03:47:19;93176.47;;;4.06;65.59
11339;BME280;5724;42.684;23.252;2023-03-15T03:49:44;93168.25;;;4.02;65.13
11339;BME280;5724;42.684;23.252;2023-03-15T03:52:10;93170.72;;;4.08;64.22
11339;BME280;5724;42.684;23.252;2023-03-15T03:54:35;93161.66;;;4.16;64.06
11339;BME280;5724;42.684;23.252;2023-03-15T03:57:01;93152.06;;;4.18;63.79
11339;BME280;5724;42.684;23.252;2023-03-15T03:59:26;93157.41;;;4.30;63.74
11339;BME280;5724;42.684;23.252;2023-03-15T04:01:51;93150.50;;;4.33;64.00
11339;BME280;5724;42.684;23.252;2023-03-15T04:04:17;93149.03;;;4.36;63.30
11339;BME280;5724;42.684;23.252;2023-03-15T04:06:42;93147.13;;;4.36;63.02
11339;BME280;5724;42.684;23.252;2023-03-15T04:09:14;93144.56;;;4.43;62.54
11339;BME280;5724;42.684;23.252;2023-03-15T04:11:41;93154.78;;;4.50;62.55
11339;BME280;5724;42.684;23.252;2023-03-15T04:14:10;93155.41;;;4.27;63.01
11339;BME280;5724;42.684;23.252;2023-03-15T04:16:36;93152.97;;;4.38;63.20
11339;BME280;5724;42.684;23.252;2023-03-15T04:19:02;93152.06;;;4.50;63.28
11339;BME280;5724;42.684;23.252;2023-03-15T04:21:29;93155.56;;;4.50;62.66
11339;BME280;5724;42.684;23.252;2023-03-15T04:24:00;93159.75;;;4.32;63.20
11339;BME280;5724;42.684;23.252;2023-03-15T04:26:26;93149.47;;;4.38;63.42
11339;BME280;5724;42.684;23.252;2023-03-15T04:28:53;93151.22;;;4.46;62.94
11339;BME280;5724;42.684;23.252;2023-03-15T04:31:19;93142.84;;;4.35;63.03
11339;BME280;5724;42.684;23.252;2023-03-15T04:33:44;93149.66;;;4.45;63.49
11339;BME280;5724;42.684;23.252;2023-03-15T04:36:10;93145.34;;;4.44;63.64
11339;BME280;5724;42.684;23.252;2023-03-15T04:38:44;93140.06;;;4.47;62.72
11339;BME280;5724;42.684;23.252;2023-03-15T04:41:12;93134.19;;;4.29;62.14
11339;BME280;5724;42.684;23.252;2023-03-15T04:43:38;93134.19;;;4.14;63.33
11339;BME280;5724;42.684;23.252;2023-03-15T04:46:04;93135.84;;;4.18;63.16
11339;BME280;5724;42.684;23.252;2023-03-15T04:48:29;93138.63;;;4.06;63.45
11339;BME280;5724;42.684;23.252;2023-03-15T04:50:55;93143.97;;;4.18;63.49
11339;BME280;5724;42.684;23.252;2023-03-15T04:53:21;93139.00;;;4.20;63.72
11339;BME280;5724;42.684;23.252;2023-03-15T04:55:46;93137.59;;;4.26;64.26
11339;BME280;5724;42.684;23.252;2023-03-15T04:58:12;93126.69;;;4.39;64.81
11339;BME280;5724;42.684;23.252;2023-03-15T05:00:37;93121.47;;;4.46;66.03
11339;BME280;5724;42.684;23.252;2023-03-15T05:03:03;93133.59;;;4.36;66.70
11339;BME280;5724;42.684;23.252;2023-03-15T05:05:31;93135.00;;;4.46;66.49
11339;BME280;5724;42.684;23.252;2023-03-15T05:07:57;93138.38;;;4.43;67.51
11339;BME280;5724;42.684;23.252;2023-03-15T05:10:22;93136.22;;;4.48;67.06
11339;BME280;5724;42.684;23.252;2023-03-15T05:12:49;93140.06;;;4.47;68.07
11339;BME280;5724;42.684;23.252;2023-03-15T05:15:15;93136.81;;;4.57;68.04
11339;BME280;5724;42.684;23.252;2023-03-15T05:17:41;93139.34;;;4.66;67.48
11339;BME280;5724;42.684;23.252;2023-03-15T05:20:07;93140.31;;;4.74;67.06
11339;BME280;5724;42.684;23.252;2023-03-15T05:22:37;93140.09;;;4.82;67.07
11339;BME280;5724;42.684;23.252;2023-03-15T05:25:03;93148.53;;;4.97;66.05
11339;BME280;5724;42.684;23.252;2023-03-15T05:27:29;93140.31;;;5.09;65.80
11339;BME280;5724;42.684;23.252;2023-03-15T05:29:54;93130.84;;;5.18;64.90
11339;BME280;5724;42.684;23.252;2023-03-15T05:32:20;93128.06;;;5.15;64.38
11339;BME280;5724;42.684;23.252;2023-03-15T05:34:51;93134.53;;;5.10;64.74
11339;BME280;5724;42.684;23.252;2023-03-15T05:37:21;93131.41;;;5.08;65.27
11339;BME280;5724;42.684;23.252;2023-03-15T05:39:47;93128.84;;;5.15;65.36
11339;BME280;5724;42.684;23.252;2023-03-15T05:42:12;93120.72;;;5.15;64.04
11339;BME280;5724;42.684;23.252;2023-03-15T05:44:38;93133.50;;;4.99;64.22
11339;BME280;5724;42.684;23.252;2023-03-15T05:47:03;93125.50;;;4.87;63.15
11339;BME280;5724;42.684;23.252;2023-03-15T05:49:29;93126.72;;;4.89;64.00
11339;BME280;5724;42.684;23.252;2023-03-15T05:51:55;93129.53;;;4.93;63.89
11339;BME280;5724;42.684;23.252;2023-03-15T05:54:20;93125.13;;;5.04;63.29
11339;BME280;5724;42.684;23.252;2023-03-15T05:56:46;93108.66;;;4.94;62.47
11339;BME280;5724;42.684;23.252;2023-03-15T05:59:11;93106.41;;;5.15;62.38
11339;BME280;5724;42.684;23.252;2023-03-15T06:01:37;93114.13;;;5.32;62.13
11339;BME280;5724;42.684;23.252;2023-03-15T06:04:02;93128.25;;;5.41;61.26
11339;BME280;5724;42.684;23.252;2023-03-15T06:06:28;93119.34;;;5.60;60.68
11339;BME280;5724;42.684;23.252;2023-03-15T06:08:54;93123.44;;;5.73;60.06
11339;BME280;5724;42.684;23.252;2023-03-15T06:11:19;93127.19;;;5.88;58.89
11339;BME280;5724;42.684;23.252;2023-03-15T06:13:45;93124.59;;;5.92;58.54
11339;BME280;5724;42.684;23.252;2023-03-15T06:16:10;93126.41;;;6.07;58.19
11339;BME280;5724;42.684;23.252;2023-03-15T06:18:36;93140.72;;;6.27;56.35
11339;BME280;5724;42.684;23.252;2023-03-15T06:21:01;93139.28;;;6.33;54.56
11339;BME280;5724;42.684;23.252;2023-03-15T06:23:26;93137.19;;;6.46;54.90
11339;BME280;5724;42.684;23.252;2023-03-15T06:25:52;93138.09;;;6.53;54.21
11339;BME280;5724;42.684;23.252;2023-03-15T06:28:17;93144.41;;;6.61;53.92
11339;BME280;5724;42.684;23.252;2023-03-15T06:30:43;93137.44;;;6.60;54.57
11339;BME280;5724;42.684;23.252;2023-03-15T06:33:08;93118.84;;;6.62;53.90
11339;BME280;5724;42.684;23.252;2023-03-15T06:35:34;93124.16;;;6.78;52.82
11339;BME280;5724;42.684;23.252;2023-03-15T06:37:59;93129.09;;;6.72;53.46
11339;BME280;5724;42.684;23.252;2023-03-15T06:40:25;93128.59;;;6.89;52.38
11339;BME280;5724;42.684;23.252;2023-03-15T06:42:50;93129.41;;;6.94;51.12
11339;BME280;5724;42.684;23.252;2023-03-15T06:45:16;93127.66;;;7.05;51.69
11339;BME280;5724;42.684;23.252;2023-03-15T06:47:41;93117.28;;;7.14;51.72
11339;BME280;5724;42.684;23.252;2023-03-15T06:50:07;93120.09;;;7.21;51.09
11339;BME280;5724;42.684;23.252;2023-03-15T06:52:33;93119.75;;;7.23;50.88
11339;BME280;5724;42.684;23.252;2023-03-15T06:54:59;93124.50;;;7.29;50.86
11339;BME280;5724;42.684;23.252;2023-03-15T06:57:24;93115.25;;;7.34;50.31
11339;BME280;5724;42.684;23.252;2023-03-15T06:59:50;93124.00;;;7.50;49.69
11339;BME280;5724;42.684;23.252;2023-03-15T07:02:17;93119.59;;;7.72;48.83
11339;BME280;5724;42.684;23.252;2023-03-15T07:04:43;93119.31;;;7.81;48.26
11339;BME280;5724;42.684;23.252;2023-03-15T07:07:10;93104.09;;;7.42;47.59
11339;BME280;5724;42.684;23.252;2023-03-15T07:09:36;93109.25;;;7.51;49.30
11339;BME280;5724;42.684;23.252;2023-03-15T07:12:02;93107.94;;;7.71;48.81
11339;BME280;5724;42.684;23.252;2023-03-15T07:14:27;93107.13;;;8.01;48.02
11339;BME280;5724;42.684;23.252;2023-03-15T07:16:53;93115.41;;;7.78;46.60
11339;BME280;5724;42.684;23.252;2023-03-15T07:19:18;93112.56;;;7.67;47.35
11339;BME280;5724;42.684;23.252;2023-03-15T07:21:43;93111.78;;;7.67;48.03
11339;BME280;5724;42.684;23.252;2023-03-15T07:24:09;93118.91;;;7.79;47.31
11339;BME280;5724;42.684;23.252;2023-03-15T07:26:34;93121.50;;;7.68;47.46
11339;BME280;5724;42.684;23.252;2023-03-15T07:29:00;93124.41;;;7.82;47.38
11339;BME280;5724;42.684;23.252;2023-03-15T07:31:25;93105.91;;;7.98;46.69
11339;BME280;5724;42.684;23.252;2023-03-15T07:33:51;93107.78;;;7.57;47.01
11339;BME280;5724;42.684;23.252;2023-03-15T07:36:16;93101.69;;;7.67;46.94
11339;BME280;5724;42.684;23.252;2023-03-15T07:38:42;93096.22;;;7.64;47.62
11339;BME280;5724;42.684;23.252;2023-03-15T07:41:08;93108.81;;;7.79;48.21
11339;BME280;5724;42.684;23.252;2023-03-15T07:43:33;93109.66;;;7.83;47.96
11339;BME280;5724;42.684;23.252;2023-03-15T07:45:59;93112.22;;;8.06;47.02
11339;BME280;5724;42.684;23.252;2023-03-15T07:48:26;93111.50;;;7.75;47.43
11339;BME280;5724;42.684;23.252;2023-03-15T07:50:53;93092.28;;;7.61;47.80
11339;BME280;5724;42.684;23.252;2023-03-15T07:53:19;93090.34;;;7.62;48.98
11339;BME280;5724;42.684;23.252;2023-03-15T07:55:46;93086.28;;;7.45;48.25
11339;BME280;5724;42.684;23.252;2023-03-15T07:58:12;93079.03;;;7.56;47.67
11339;BME280;5724;42.684;23.252;2023-03-15T08:00:37;93099.00;;;8.04;47.45
11339;BME280;5724;42.684;23.252;2023-03-15T08:03:03;93089.44;;;8.21;46.62
11339;BME280;5724;42.684;23.252;2023-03-15T08:05:29;93091.22;;;8.07;46.65
11339;BME280;5724;42.684;23.252;2023-03-15T08:07:55;93087.44;;;8.15;46.14
11339;BME280;5724;42.684;23.252;2023-03-15T08:10:21;93096.22;;;8.35;46.40
11339;BME280;5724;42.684;23.252;2023-03-15T08:12:46;93092.91;;;8.18;46.30
11339;BME280;5724;42.684;23.252;2023-03-15T08:15:13;93081.47;;;8.39;46.15
11339;BME280;5724;42.684;23.252;2023-03-15T08:17:42;93070.06;;;8.71;45.58
11339;BME280;5724;42.684;23.252;2023-03-15T08:20:09;93074.44;;;8.86;45.06
11339;BME280;5724;42.684;23.252;2023-03-15T08:22:42;93066.59;;;8.74;44.29
11339;BME280;5724;42.684;23.252;2023-03-15T08:25:13;93072.72;;;8.60;44.97
11339;BME280;5724;42.684;23.252;2023-03-15T08:27:39;93085.00;;;8.43;45.65
11339;BME280;5724;42.684;23.252;2023-03-15T08:30:07;93080.34;;;8.92;44.98
11339;BME280;5724;42.684;23.252;2023-03-15T08:32:33;93071.22;;;9.28;44.36
11339;BME280;5724;42.684;23.252;2023-03-15T08:34:58;93070.59;;;9.56;44.42
11339;BME280;5724;42.684;23.252;2023-03-15T08:37:24;93065.22;;;9.85;44.32
11339;BME280;5724;42.684;23.252;2023-03-15T08:39:49;93072.63;;;9.91;44.25
11339;BME280;5724;42.684;23.252;2023-03-15T08:42:22;93061.69;;;9.84;43.51
11339;BME280;5724;42.684;23.252;2023-03-15T08:44:48;93054.25;;;9.74;43.41
11339;BME280;5724;42.684;23.252;2023-03-15T08:47:13;93050.25;;;9.39;43.99
11339;BME280;5724;42.684;23.252;2023-03-15T08:49:38;93056.03;;;9.27;44.70
11339;BME280;5724;42.684;23.252;2023-03-15T08:52:04;93058.00;;;9.34;44.78
11339;BME280;5724;42.684;23.252;2023-03-15T08:54:29;93063.38;;;9.20;45.14
11339;BME280;5724;42.684;23.252;2023-03-15T08:56:55;93062.34;;;8.80;46.20
11339;BME280;5724;42.684;23.252;2023-03-15T08:59:21;93058.59;;;8.47;47.75
11339;BME280;5724;42.684;23.252;2023-03-15T09:01:46;93070.78;;;8.60;47.92
11339;BME280;5724;42.684;23.252;2023-03-15T09:04:12;93055.81;;;8.95;47.09
11339;BME280;5724;42.684;23.252;2023-03-15T09:06:38;93041.63;;;9.27;46.59
11339;BME280;5724;42.684;23.252;2023-03-15T09:09:03;93056.09;;;9.45;45.71
11339;BME280;5724;42.684;23.252;2023-03-15T09:11:28;93037.91;;;9.67;45.93
11339;BME280;5724;42.684;23.252;2023-03-15T09:13:54;93059.44;;;10.04;45.61
11339;BME280;5724;42.684;23.252;2023-03-15T09:16:19;93055.22;;;10.24;44.96
11339;BME280;5724;42.684;23.252;2023-03-15T09:18:45;93056.78;;;10.40;44.70
11339;BME280;5724;42.684;23.252;2023-03-15T09:21:10;93061.84;;;10.34;44.26
11339;BME280;5724;42.684;23.252;2023-03-15T09:23:36;93061.47;;;10.50;44.64
11339;BME280;5724;42.684;23.252;2023-03-15T09:26:01;93057.19;;;10.56;43.98
11339;BME280;5724;42.684;23.252;2023-03-15T09:28:27;93056.03;;;10.64;44.33
11339;BME280;5724;42.684;23.252;2023-03-15T09:30:53;93059.91;;;10.70;44.30
11339;BME280;5724;42.684;23.252;2023-03-15T09:33:19;93060.31;;;10.65;44.35
11339;BME280;5724;42.684;23.252;2023-03-15T09:35:50;93056.41;;;10.87;43.46
11339;BME280;5724;42.684;23.252;2023-03-15T09:38:16;93056.78;;;10.93;44.16
11339;BME280;5724;42.684;23.252;2023-03-15T09:40:43;93056.75;;;11.18;43.54
11339;BME280;5724;42.684;23.252;2023-03-15T09:46:19;93031.72;;;11.34;42.66
11339;BME280;5724;42.684;23.252;2023-03-15T09:49:08;93030.91;;;11.40;42.53
11339;BME280;5724;42.684;23.252;2023-03-15T09:51:35;93023.47;;;11.44;42.82
11339;BME280;5724;42.684;23.252;2023-03-15T09:54:07;93018.78;;;11.38;42.76
11339;BME280;5724;42.684;23.252;2023-03-15T09:59:30;93025.41;;;11.51;42.36
11339;BME280;5724;42.684;23.252;2023-03-15T10:01:57;93031.34;;;11.32;42.43
11339;BME280;5724;42.684;23.252;2023-03-15T10:07:13;93037.63;;;11.11;42.31
11339;BME280;5724;42.684;23.252;2023-03-15T10:09:41;93038.03;;;11.13;42.47
11339;BME280;5724;42.684;23.252;2023-03-15T10:12:25;93045.47;;;10.95;43.34
11339;BME280;5724;42.684;23.252;2023-03-15T10:14:58;93044.25;;;11.24;43.24
11339;BME280;5724;42.684;23.252;2023-03-15T10:17:51;93030.13;;;11.43;42.54
11339;BME280;5724;42.684;23.252;2023-03-15T10:20:24;93028.19;;;11.40;42.61
11339;BME280;5724;42.684;23.252;2023-03-15T10:25:36;93028.09;;;11.62;41.80
11339;BME280;5724;42.684;23.252;2023-03-15T10:30:47;93029.97;;;11.86;41.36
11339;BME280;5724;42.684;23.252;2023-03-15T10:33:38;93017.75;;;12.09;41.30
11339;BME280;5724;42.684;23.252;2023-03-15T10:36:21;93016.13;;;12.15;40.57
11339;BME280;5724;42.684;23.252;2023-03-15T10:38:47;93020.00;;;12.21;41.11
11339;BME280;5724;42.684;23.252;2023-03-15T10:41:29;93030.56;;;12.22;40.99
11339;BME280;5724;42.684;23.252;2023-03-15T10:44:00;93019.41;;;11.88;41.54
11339;BME280;5724;42.684;23.252;2023-03-15T10:46:27;93017.09;;;11.76;42.48
11339;BME280;5724;42.684;23.252;2023-03-15T10:49:12;93024.91;;;11.74;42.10
11339;BME280;5724;42.684;23.252;2023-03-15T10:51:44;93016.34;;;11.68;42.25
11339;BME280;5724;42.684;23.252;2023-03-15T10:54:22;93024.50;;;11.79;41.40
11339;BME280;5724;42.684;23.252;2023-03-15T10:57:13;93032.00;;;11.68;42.00
11339;BME280;5724;42.684;23.252;2023-03-15T11:00:20;93040.19;;;11.71;42.22
11339;BME280;5724;42.684;23.252;2023-03-15T11:02:53;93031.22;;;11.57;42.32
11339;BME280;5724;42.684;23.252;2023-03-15T11:05:29;93021.16;;;11.36;42.36
11339;BME280;5724;42.684;23.252;2023-03-15T11:07:57;93031.78;;;11.12;43.31
11339;BME280;5724;42.684;23.252;2023-03-15T11:10:25;93030.63;;;10.96;43.28
11339;BME280;5724;42.684;23.252;2023-03-15T11:13:18;93034.91;;;10.89;44.08
11339;BME280;5724;42.684;23.252;2023-03-15T11:21:18;93017.38;;;10.58;45.33
11339;BME280;5724;42.684;23.252;2023-03-15T11:23:47;93023.25;;;10.50;47.53
11339;BME280;5724;42.684;23.252;2023-03-15T11:26:19;93037.28;;;10.38;48.39
11339;BME280;5724;42.684;23.252;2023-03-15T11:28:52;93032.44;;;9.74;53.66
11339;BME280;5724;42.684;23.252;2023-03-15T11:31:21;93029.56;;;9.35;56.54
11339;BME280;5724;42.684;23.252;2023-03-15T11:37:02;93004.78;;;8.85;56.65
11339;BME280;5724;42.684;23.252;2023-03-15T11:39:43;93018.84;;;8.94;57.45
11339;BME280;5724;42.684;23.252;2023-03-15T11:42:18;93002.50;;;8.94;58.17
11339;BME280;5724;42.684;23.252;2023-03-15T11:44:47;93022.06;;;9.10;58.91
11339;BME280;5724;42.684;23.252;2023-03-15T11:47:21;93008.91;;;9.27;58.54
11339;BME280;5724;42.684;23.252;2023-03-15T11:49:53;93011.22;;;9.25;58.57
11339;BME280;5724;42.684;23.252;2023-03-15T11:52:24;93012.72;;;9.11;59.42
11339;BME280;5724;42.684;23.252;2023-03-15T11:54:54;93012.72;;;9.11;59.93
11339;BME280;5724;42.684;23.252;2023-03-15T11:57:42;93007.72;;;9.24;60.27
11339;BME280;5724;42.684;23.252;2023-03-15T12:00:24;93003.47;;;9.30;61.10
11339;BME280;5724;42.684;23.252;2023-03-15T12:03:37;93004.69;;;9.36;60.32
11339;BME280;5724;42.684;23.252;2023-03-15T12:14:01;92997.69;;;9.39;61.07
11339;BME280;5724;42.684;23.252;2023-03-15T12:16:49;92991.75;;;9.23;61.03
11339;BME280;5724;42.684;23.252;2023-03-15T12:19:17;92994.09;;;9.24;60.33
11339;BME280;5724;42.684;23.252;2023-03-15T12:21:49;92991.75;;;9.19;60.10
11339;BME280;5724;42.684;23.252;2023-03-15T12:24:26;92993.69;;;9.18;60.59
11339;BME280;5724;42.684;23.252;2023-03-15T12:27:25;92994.13;;;9.28;59.34
11339;BME280;5724;42.684;23.252;2023-03-15T12:29:58;92982.03;;;9.25;58.72
11339;BME280;5724;42.684;23.252;2023-03-15T12:32:25;92976.53;;;9.11;57.50
11339;BME280;5724;42.684;23.252;2023-03-15T12:34:54;92983.06;;;8.92;55.67
11339;BME280;5724;42.684;23.252;2023-03-15T12:56:35;92963.78;;;8.56;58.63
11339;BME280;5724;42.684;23.252;2023-03-15T12:59:11;92965.78;;;8.67;56.38
11339;BME280;5724;42.684;23.252;2023-03-15T13:01:37;92967.16;;;8.39;55.94
11339;BME280;5724;42.684;23.252;2023-03-15T13:04:04;92956.94;;;8.29;56.45
11339;BME280;5724;42.684;23.252;2023-03-15T13:06:54;92971.03;;;8.38;56.10
11339;BME280;5724;42.684;23.252;2023-03-15T13:09:48;92962.38;;;8.29;56.15
11339;BME280;5724;42.684;23.252;2023-03-15T13:12:29;92947.59;;;8.26;56.20
11339;BME280;5724;42.684;23.252;2023-03-15T13:15:05;92947.94;;;8.18;56.13
11339;BME280;5724;42.684;23.252;2023-03-15T13:17:49;92957.03;;;8.36;55.80
11339;BME280;5724;42.684;23.252;2023-03-15T13:28:35;92973.19;;;8.15;58.19
11339;BME280;5724;42.684;23.252;2023-03-15T13:33:46;92971.16;;;8.08;59.09
11339;BME280;5724;42.684;23.252;2023-03-15T13:36:14;92971.16;;;8.04;58.59
11339;BME280;5724;42.684;23.252;2023-03-15T13:41:24;92978.47;;;8.00;59.35
11339;BME280;5724;42.684;23.252;2023-03-15T13:43:52;92976.91;;;7.99;59.98
11339;BME280;5724;42.684;23.252;2023-03-15T13:46:20;92976.91;;;7.96;60.44
11339;BME280;5724;42.684;23.252;2023-03-15T13:48:47;92973.81;;;7.97;60.28
11339;BME280;5724;42.684;23.252;2023-03-15T13:51:25;92976.19;;;8.02;61.37
11339;BME280;5724;42.684;23.252;2023-03-15T13:54:18;92971.56;;;8.07;61.76
11339;BME280;5724;42.684;23.252;2023-03-15T13:59:07;92973.63;;;7.80;63.60
11339;BME280;5724;42.684;23.252;2023-03-15T14:01:37;92987.84;;;7.62;65.02
11339;BME280;5724;42.684;23.252;2023-03-15T14:04:12;92988.47;;;7.49;65.38
11339;BME280;5724;42.684;23.252;2023-03-15T14:06:40;92988.81;;;7.43;66.56
11339;BME280;5724;42.684;23.252;2023-03-15T14:09:14;92942.94;;;7.01;66.89
11339;BME280;5724;42.684;23.252;2023-03-15T14:11:41;92977.28;;;7.20;67.21
11339;BME280;5724;42.684;23.252;2023-03-15T14:14:25;92973.00;;;7.15;67.84
11339;BME280;5724;42.684;23.252;2023-03-15T14:16:51;92975.63;;;7.12;68.94
11339;BME280;5724;42.684;23.252;2023-03-15T14:19:19;92981.41;;;7.07;68.96
11339;BME280;5724;42.684;23.252;2023-03-15T14:22:13;92983.75;;;7.08;68.39
11339;BME280;5724;42.684;23.252;2023-03-15T14:24:43;92981.44;;;7.10;69.05
11339;BME280;5724;42.684;23.252;2023-03-15T14:27:19;92985.19;;;6.99;70.03
11339;BME280;5724;42.684;23.252;2023-03-15T14:29:56;92974.38;;;7.02;70.17
11339;BME280;5724;42.684;23.252;2023-03-15T14:37:42;92956.47;;;6.98;72.99
11339;BME280;5724;42.684;23.252;2023-03-15T14:40:16;92971.09;;;6.89;73.45
11339;BME280;5724;42.684;23.252;2023-03-15T14:42:43;92974.97;;;6.88;74.31